createdAt,value
2023-05-01T00:01:05.447Z,5.63
2023-05-01T00:02:45.224Z,5.62
2023-05-01T00:04:24.982Z,5.6
2023-05-01T00:06:04.784Z,5.57
2023-05-01T00:07:44.505Z,5.56
2023-05-01T00:09:24.270Z,5.55
2023-05-01T00:11:04.134Z,5.52
2023-05-01T00:12:43.788Z,5.49
2023-05-01T00:14:23.578Z,5.45
2023-05-01T00:16:03.330Z,5.44
2023-05-01T00:17:43.070Z,5.4
2023-05-01T00:19:22.834Z,5.38
2023-05-01T00:21:02.633Z,5.33
2023-05-01T00:22:42.368Z,5.3
2023-05-01T00:24:22.152Z,5.25
2023-05-01T00:26:01.902Z,5.22
2023-05-01T00:27:41.668Z,5.18
2023-05-01T00:29:21.441Z,5.16
2023-05-01T00:31:01.185Z,5.14
2023-05-01T00:32:40.969Z,5.11
2023-05-01T00:34:20.789Z,5.08
2023-05-01T00:36:00.561Z,5.05
2023-05-01T00:37:40.281Z,5.03
2023-05-01T00:39:20.011Z,5.03
2023-05-01T00:40:59.797Z,5.01
2023-05-01T00:42:39.551Z,4.96
2023-05-01T00:44:19.315Z,4.96
2023-05-01T00:45:59.118Z,4.94
2023-05-01T00:47:38.856Z,4.91
2023-05-01T00:49:18.595Z,4.92
2023-05-01T00:50:58.389Z,4.88
2023-05-01T00:52:38.193Z,4.85
2023-05-01T00:55:57.659Z,4.79
2023-05-01T00:57:37.422Z,4.8
2023-05-01T00:59:17.175Z,4.73
2023-05-01T01:00:57.095Z,4.73
2023-05-01T01:02:36.708Z,4.71
2023-05-01T01:04:16.466Z,4.69
2023-05-01T01:05:56.286Z,4.66
2023-05-01T01:07:36.020Z,4.65
2023-05-01T01:09:15.868Z,4.62
2023-05-01T01:10:55.533Z,4.59
2023-05-01T01:12:35.275Z,4.58
2023-05-01T01:14:15.068Z,4.57
2023-05-01T01:15:54.866Z,4.53
2023-05-01T01:17:34.593Z,4.51
2023-05-01T01:19:14.351Z,4.46
2023-05-01T01:20:54.114Z,4.42
2023-05-01T01:22:33.868Z,4.42
2023-05-01T01:24:13.646Z,4.41
2023-05-01T01:25:53.422Z,4.38
2023-05-01T01:27:33.171Z,4.36
2023-05-01T01:29:12.928Z,4.35
2023-05-01T01:30:52.768Z,4.34
2023-05-01T01:32:32.476Z,4.31
2023-05-01T01:34:12.257Z,4.29
2023-05-01T01:35:52.082Z,4.26
2023-05-01T01:39:11.541Z,4.19
2023-05-01T01:40:51.272Z,4.19
2023-05-01T01:42:31.046Z,4.17
2023-05-01T01:44:10.819Z,4.16
2023-05-01T01:45:50.622Z,4.12
2023-05-01T01:47:30.439Z,4.09
2023-05-01T01:49:10.131Z,4.09
2023-05-01T01:50:49.891Z,4.04
2023-05-01T01:52:29.702Z,4.05
2023-05-01T01:55:49.164Z,4
2023-05-01T01:57:28.934Z,4
2023-05-01T01:59:08.678Z,3.95
2023-05-01T02:00:48.519Z,3.95
2023-05-01T02:02:28.215Z,3.9
2023-05-01T02:04:07.957Z,3.88
2023-05-01T02:05:47.741Z,3.87
2023-05-01T02:07:27.552Z,3.86
2023-05-01T02:09:07.260Z,3.85
2023-05-01T02:10:47.107Z,3.81
2023-05-01T02:12:26.935Z,3.79
2023-05-01T02:15:46.341Z,3.76
2023-05-01T02:17:26.082Z,3.74
2023-05-01T02:19:06.002Z,3.73
2023-05-01T02:20:45.648Z,3.69
2023-05-01T02:22:25.364Z,3.73
2023-05-01T02:24:05.125Z,3.69
2023-05-01T02:25:44.893Z,3.68
2023-05-01T02:27:24.674Z,3.66
2023-05-01T02:29:04.418Z,3.63
2023-05-01T02:30:44.276Z,3.61
2023-05-01T02:32:23.978Z,3.6
2023-05-01T02:35:43.528Z,3.57
2023-05-01T02:37:23.276Z,3.54
2023-05-01T02:39:03.012Z,3.53
2023-05-01T02:40:42.773Z,3.52
2023-05-01T02:42:22.531Z,3.49
2023-05-01T02:44:02.334Z,3.48
2023-05-01T02:45:42.091Z,3.48
2023-05-01T02:47:21.825Z,3.46
2023-05-01T02:49:01.604Z,3.44
2023-05-01T02:50:41.415Z,3.43
2023-05-01T02:52:21.172Z,3.42
2023-05-01T02:54:00.902Z,3.4
2023-05-01T02:55:40.731Z,3.38
2023-05-01T02:57:20.416Z,3.36
2023-05-01T02:59:00.215Z,3.35
2023-05-01T03:00:40.001Z,3.34
2023-05-01T03:02:19.798Z,3.31
2023-05-01T03:03:59.472Z,3.31
2023-05-01T03:05:39.253Z,3.28
2023-05-01T03:07:18.986Z,3.22
2023-05-01T03:08:58.772Z,3.24
2023-05-01T03:10:38.583Z,3.22
2023-05-01T03:12:18.284Z,3.22
2023-05-01T03:13:58.048Z,3.22
2023-05-01T03:15:37.817Z,3.19
2023-05-01T03:17:17.579Z,3.17
2023-05-01T03:18:57.346Z,3.16
2023-05-01T03:20:37.156Z,3.14
2023-05-01T03:22:16.923Z,3.12
2023-05-01T03:23:56.619Z,3.11
2023-05-01T03:25:36.401Z,3.09
2023-05-01T03:27:16.202Z,3.05
2023-05-01T03:28:55.932Z,3.04
2023-05-01T03:30:35.760Z,3.02
2023-05-01T03:32:15.468Z,3
2023-05-01T03:33:55.226Z,2.99
2023-05-01T03:35:34.996Z,2.95
2023-05-01T03:37:14.744Z,2.94
2023-05-01T03:38:54.512Z,2.94
2023-05-01T03:40:34.279Z,2.9
2023-05-01T03:42:14.035Z,2.9
2023-05-01T03:43:53.912Z,2.89
2023-05-01T03:45:33.580Z,2.87
2023-05-01T03:47:13.333Z,2.86
2023-05-01T03:48:53.089Z,2.87
2023-05-01T03:50:32.855Z,2.84
2023-05-01T03:52:12.613Z,2.93
2023-05-01T03:53:52.374Z,2.84
2023-05-01T03:55:32.146Z,2.84
2023-05-01T03:57:11.963Z,2.81
2023-05-01T03:58:51.676Z,2.81
2023-05-01T04:00:31.441Z,2.8
2023-05-01T04:02:11.218Z,2.78
2023-05-01T04:03:50.970Z,2.79
2023-05-01T04:05:30.768Z,2.79
2023-05-01T04:07:10.498Z,2.71
2023-05-01T04:08:50.264Z,2.71
2023-05-01T04:10:30.025Z,2.79
2023-05-01T04:12:09.779Z,2.76
2023-05-01T04:15:29.309Z,2.73
2023-05-01T04:17:09.145Z,2.74
2023-05-01T04:18:48.885Z,2.77
2023-05-01T04:20:28.633Z,2.78
2023-05-01T04:22:08.383Z,2.75
2023-05-01T04:23:48.114Z,2.74
2023-05-01T04:25:27.992Z,2.74
2023-05-01T04:27:07.658Z,2.75
2023-05-01T04:28:47.527Z,2.75
2023-05-01T04:30:27.213Z,2.73
2023-05-01T04:32:06.935Z,2.73
2023-05-01T04:33:46.754Z,2.76
2023-05-01T04:35:26.484Z,2.65
2023-05-01T04:37:06.269Z,2.73
2023-05-01T04:38:46.061Z,2.74
2023-05-01T04:42:05.604Z,2.74
2023-05-01T04:43:45.294Z,2.74
2023-05-01T04:45:25.134Z,2.74
2023-05-01T04:47:04.818Z,2.68
2023-05-01T04:48:44.600Z,2.76
2023-05-01T04:50:24.354Z,2.75
2023-05-01T04:52:04.116Z,2.78
2023-05-01T04:53:43.919Z,2.77
2023-05-01T04:55:23.636Z,2.76
2023-05-01T04:57:03.406Z,2.66
2023-05-01T04:58:43.167Z,2.77
2023-05-01T05:02:02.750Z,2.77
2023-05-01T05:03:42.468Z,2.8
2023-05-01T05:05:22.225Z,2.79
2023-05-01T05:07:01.994Z,2.8
2023-05-01T05:08:41.763Z,2.81
2023-05-01T05:10:21.578Z,2.83
2023-05-01T05:12:01.273Z,2.83
2023-05-01T05:13:41.030Z,2.87
2023-05-01T05:15:20.858Z,2.88
2023-05-01T05:17:00.594Z,2.93
2023-05-01T05:18:40.336Z,2.92
2023-05-01T05:20:20.131Z,2.94
2023-05-01T05:21:59.867Z,2.97
2023-05-01T05:25:19.378Z,2.93
2023-05-01T05:26:59.144Z,3.03
2023-05-01T05:28:38.907Z,3.04
2023-05-01T05:31:58.449Z,3.1
2023-05-01T05:35:17.980Z,3.17
2023-05-01T05:36:57.775Z,3.2
2023-05-01T05:38:37.495Z,3.21
2023-05-01T05:40:17.314Z,3.26
2023-05-01T05:41:57.016Z,3.27
2023-05-01T05:43:36.801Z,3.3
2023-05-01T05:45:16.572Z,3.33
2023-05-01T05:46:56.318Z,3.37
2023-05-01T05:48:36.088Z,3.4
2023-05-01T05:50:15.847Z,3.42
2023-05-01T05:55:15.218Z,3.55
2023-05-01T05:56:54.891Z,3.57
2023-05-01T05:58:34.669Z,3.56
2023-05-01T06:00:14.620Z,3.66
2023-05-01T06:01:54.276Z,3.67
2023-05-01T06:05:13.722Z,3.75
2023-05-01T06:06:53.495Z,3.79
2023-05-01T06:08:33.268Z,3.82
2023-05-01T06:10:13.046Z,3.86
2023-05-01T06:11:52.792Z,3.89
2023-05-01T06:15:12.298Z,3.96
2023-05-01T06:16:52.070Z,3.99
2023-05-01T06:18:31.835Z,4.04
2023-05-01T06:20:11.666Z,4.1
2023-05-01T06:21:51.368Z,4.15
2023-05-01T06:23:31.136Z,4.19
2023-05-01T06:25:10.895Z,4.21
2023-05-01T06:26:50.669Z,4.15
2023-05-01T06:28:30.418Z,4.33
2023-05-01T06:30:10.177Z,4.41
2023-05-01T06:31:49.946Z,4.46
2023-05-01T06:33:29.784Z,4.54
2023-05-01T06:35:09.460Z,4.63
2023-05-01T06:36:49.229Z,4.69
2023-05-01T06:38:28.991Z,4.76
2023-05-01T06:40:08.836Z,4.85
2023-05-01T06:41:48.535Z,4.94
2023-05-01T06:43:28.320Z,4.98
2023-05-01T06:45:08.061Z,5.07
2023-05-01T06:46:47.824Z,5.12
2023-05-01T06:48:27.610Z,5.21
2023-05-01T06:50:07.410Z,5.29
2023-05-01T06:51:47.178Z,5.38
2023-05-01T06:53:26.962Z,5.43
2023-05-01T06:55:06.695Z,5.53
2023-05-01T06:56:46.449Z,5.61
2023-05-01T06:58:26.259Z,5.71
2023-05-01T07:00:05.934Z,5.82
2023-05-01T07:01:45.680Z,5.92
2023-05-01T07:05:05.264Z,6.12
2023-05-01T07:06:44.977Z,6.23
2023-05-01T07:08:24.745Z,6.35
2023-05-01T07:10:04.587Z,6.44
2023-05-01T07:11:44.282Z,6.54
2023-05-01T07:13:24.101Z,6.63
2023-05-01T07:15:03.853Z,6.76
2023-05-01T07:16:43.581Z,6.89
2023-05-01T07:18:23.347Z,6.99
2023-05-01T07:20:03.196Z,7.08
2023-05-01T07:21:42.905Z,7.18
2023-05-01T07:25:02.415Z,7.41
2023-05-01T07:26:42.163Z,7.51
2023-05-01T07:28:21.954Z,7.64
2023-05-01T07:30:01.690Z,7.77
2023-05-01T07:31:41.454Z,7.9
2023-05-01T07:33:21.201Z,8.03
2023-05-01T07:35:00.966Z,8.14
2023-05-01T07:36:40.730Z,8.24
2023-05-01T07:38:20.631Z,8.35
2023-05-01T07:40:00.417Z,8.47
2023-05-01T07:41:40.016Z,8.59
2023-05-01T07:43:19.856Z,8.72
2023-05-01T07:44:59.597Z,8.85
2023-05-01T07:46:39.327Z,8.89
2023-05-01T07:48:19.090Z,9.03
2023-05-01T07:49:58.858Z,9.13
2023-05-01T07:51:38.655Z,9.22
2023-05-01T07:53:18.446Z,9.3
2023-05-01T07:54:58.173Z,9.38
2023-05-01T07:56:37.901Z,9.43
2023-05-01T07:58:17.711Z,9.55
2023-05-01T07:59:57.450Z,9.64
2023-05-01T08:01:37.190Z,9.77
2023-05-01T08:03:16.950Z,9.84
2023-05-01T08:04:56.773Z,9.96
2023-05-01T08:06:36.467Z,10.03
2023-05-01T08:08:16.250Z,10.14
2023-05-01T08:09:56.027Z,10.22
2023-05-01T08:11:35.890Z,10.32
2023-05-01T08:14:55.342Z,10.5
2023-05-01T08:16:35.112Z,10.56
2023-05-01T08:18:14.829Z,10.67
2023-05-01T08:21:34.356Z,10.85
2023-05-01T08:24:53.985Z,11
2023-05-01T08:26:33.645Z,11.06
2023-05-01T08:28:13.479Z,11.17
2023-05-01T08:29:53.200Z,11.27
2023-05-01T08:31:32.944Z,11.36
2023-05-01T08:33:12.708Z,11.45
2023-05-01T08:34:52.491Z,11.53
2023-05-01T08:36:32.234Z,11.63
2023-05-01T08:38:12.004Z,11.69
2023-05-01T08:39:51.765Z,11.78
2023-05-01T08:41:31.564Z,11.88
2023-05-01T08:43:11.302Z,11.95
2023-05-01T08:44:51.114Z,12.04
2023-05-01T08:46:30.873Z,12.12
2023-05-01T08:48:10.589Z,12.2
2023-05-01T08:49:50.423Z,12.29
2023-05-01T08:51:30.117Z,12.34
2023-05-01T08:53:09.873Z,12.44
2023-05-01T08:54:49.639Z,12.5
2023-05-01T08:56:29.483Z,12.59
2023-05-01T08:58:09.175Z,12.62
2023-05-01T08:59:48.910Z,12.66
2023-05-01T09:01:28.729Z,12.75
2023-05-01T09:03:08.444Z,12.8
2023-05-01T09:04:48.280Z,12.89
2023-05-01T09:06:28.006Z,12.92
2023-05-01T09:08:07.755Z,12.98
2023-05-01T09:09:47.510Z,13.03
2023-05-01T09:11:27.283Z,13.09
2023-05-01T09:13:07.041Z,13.14
2023-05-01T09:14:46.797Z,13.2
2023-05-01T09:16:26.567Z,13.26
2023-05-01T09:18:06.341Z,13.3
2023-05-01T09:19:46.079Z,13.36
2023-05-01T09:21:25.871Z,13.43
2023-05-01T09:23:05.646Z,13.49
2023-05-01T09:24:45.406Z,13.55
2023-05-01T09:26:25.144Z,13.63
2023-05-01T09:29:44.824Z,13.76
2023-05-01T09:31:24.480Z,13.82
2023-05-01T09:33:04.217Z,13.88
2023-05-01T09:34:43.960Z,13.95
2023-05-01T09:36:23.734Z,14.01
2023-05-01T09:38:03.520Z,14.09
2023-05-01T09:39:43.355Z,14.14
2023-05-01T09:41:23.012Z,14.22
2023-05-01T09:43:02.827Z,14.27
2023-05-01T09:44:42.573Z,14.34
2023-05-01T09:48:02.126Z,14.45
2023-05-01T09:49:41.824Z,14.5
2023-05-01T09:51:21.734Z,14.59
2023-05-01T09:53:01.376Z,14.64
2023-05-01T09:54:41.144Z,14.69
2023-05-01T09:56:21.056Z,14.73
2023-05-01T09:58:00.669Z,14.81
2023-05-01T09:59:40.512Z,14.87
2023-05-01T10:01:20.339Z,14.89
2023-05-01T10:02:59.948Z,14.95
2023-05-01T10:04:39.893Z,15.01
2023-05-01T10:06:19.677Z,15.07
2023-05-01T10:07:59.507Z,15.13
2023-05-01T10:09:39.146Z,15.17
2023-05-01T10:11:18.765Z,15.22
2023-05-01T10:12:58.716Z,15.26
2023-05-01T10:14:38.379Z,15.31
2023-05-01T10:16:18.209Z,15.39
2023-05-01T10:17:58.000Z,15.44
2023-05-01T10:19:37.780Z,15.5
2023-05-01T10:21:17.553Z,15.47
2023-05-01T10:22:57.302Z,15.58
2023-05-01T10:24:37.054Z,15.63
2023-05-01T10:26:16.705Z,15.68
2023-05-01T10:27:56.579Z,15.75
2023-05-01T10:29:36.171Z,15.8
2023-05-01T10:31:16.108Z,15.83
2023-05-01T10:32:55.906Z,15.91
2023-05-01T10:34:35.588Z,15.96
2023-05-01T10:36:15.432Z,15.98
2023-05-01T10:37:55.155Z,16.01
2023-05-01T10:39:34.989Z,16.09
2023-05-01T10:41:14.702Z,16.12
2023-05-01T10:42:54.400Z,16.15
2023-05-01T10:44:34.207Z,16.2
2023-05-01T10:46:13.815Z,16.27
2023-05-01T10:47:53.712Z,16.32
2023-05-01T10:49:33.409Z,16.4
2023-05-01T10:51:13.274Z,16.46
2023-05-01T10:52:52.880Z,16.53
2023-05-01T10:54:32.882Z,16.59
2023-05-01T10:56:12.397Z,16.62
2023-05-01T10:57:52.188Z,16.7
2023-05-01T10:59:32.009Z,16.79
2023-05-01T11:01:11.762Z,16.85
2023-05-01T11:02:51.498Z,16.93
2023-05-01T11:04:31.339Z,17.01
2023-05-01T11:07:50.757Z,17.18
2023-05-01T11:09:30.534Z,17.26
2023-05-01T11:11:10.286Z,17.34
2023-05-01T11:12:50.136Z,17.4
2023-05-01T11:14:29.965Z,17.44
2023-05-01T11:16:09.567Z,17.45
2023-05-01T11:17:49.347Z,17.45
2023-05-01T11:19:29.111Z,17.43
2023-05-01T11:21:08.873Z,17.4
2023-05-01T11:22:48.638Z,17.37
2023-05-01T11:24:28.399Z,17.35
2023-05-01T11:27:47.917Z,17.32
2023-05-01T11:29:27.718Z,17.33
2023-05-01T11:31:07.502Z,17.34
2023-05-01T11:32:47.230Z,17.39
2023-05-01T11:34:26.984Z,17.41
2023-05-01T11:36:06.868Z,17.44
2023-05-01T11:37:46.588Z,17.49
2023-05-01T11:39:26.281Z,17.54
2023-05-01T11:41:06.130Z,17.61
2023-05-01T11:42:45.806Z,17.7
2023-05-01T11:44:25.569Z,17.79
2023-05-01T11:46:05.324Z,17.91
2023-05-01T11:47:45.100Z,18
2023-05-01T11:49:24.980Z,18.09
2023-05-01T11:51:04.611Z,18.15
2023-05-01T11:52:44.368Z,18.21
2023-05-01T11:54:24.225Z,18.24
2023-05-01T11:56:03.954Z,18.2
2023-05-01T11:57:43.682Z,18.33
2023-05-01T12:01:03.380Z,18.45
2023-05-01T12:02:43.074Z,18.46
2023-05-01T12:04:22.844Z,18.51
2023-05-01T12:06:02.639Z,18.57
2023-05-01T12:07:42.314Z,18.62
2023-05-01T12:09:22.025Z,18.74
2023-05-01T12:11:01.805Z,18.79
2023-05-01T12:12:41.626Z,18.85
2023-05-01T12:14:21.315Z,18.91
2023-05-01T12:16:01.270Z,18.9
2023-05-01T12:17:40.845Z,18.9
2023-05-01T12:19:20.759Z,18.87
2023-05-01T12:21:00.450Z,18.87
2023-05-01T12:22:40.179Z,18.89
2023-05-01T12:24:19.948Z,18.9
2023-05-01T12:25:59.668Z,18.95
2023-05-01T12:27:39.426Z,18.98
2023-05-01T12:29:19.248Z,19.03
2023-05-01T12:30:59.063Z,19.04
2023-05-01T12:32:38.738Z,19.04
2023-05-01T12:34:18.516Z,19.09
2023-05-01T12:35:58.256Z,19.07
2023-05-01T12:37:38.057Z,19.08
2023-05-01T12:39:17.866Z,19.1
2023-05-01T12:40:57.563Z,19.12
2023-05-01T12:42:37.296Z,19.17
2023-05-01T12:44:17.064Z,19.17
2023-05-01T12:45:56.952Z,19.23
2023-05-01T12:47:36.773Z,19.28
2023-05-01T12:49:16.351Z,19.28
2023-05-01T12:50:56.346Z,19.41
2023-05-01T12:52:35.889Z,19.53
2023-05-01T12:54:15.661Z,19.6
2023-05-01T12:55:55.491Z,19.7
2023-05-01T12:57:35.277Z,19.77
2023-05-01T12:59:15.019Z,19.81
2023-05-01T13:00:54.802Z,19.82
2023-05-01T13:02:34.471Z,19.89
2023-05-01T13:04:14.244Z,19.92
2023-05-01T13:05:54.020Z,20.03
2023-05-01T13:07:33.782Z,20.08
2023-05-01T13:09:13.605Z,20.12
2023-05-01T13:10:53.281Z,20.15
2023-05-01T13:12:33.055Z,20.19
2023-05-01T13:14:12.848Z,20.21
2023-05-01T13:15:52.574Z,20.25
2023-05-01T13:17:32.371Z,20.23
2023-05-01T13:19:12.112Z,20.25
2023-05-01T13:20:51.875Z,20.28
2023-05-01T13:22:31.776Z,20.32
2023-05-01T13:24:11.428Z,20.37
2023-05-01T13:25:51.185Z,20.44
2023-05-01T13:27:30.940Z,20.5
2023-05-01T13:29:10.761Z,20.48
2023-05-01T13:30:50.550Z,20.6
2023-05-01T13:32:30.243Z,20.61
2023-05-01T13:34:09.989Z,20.62
2023-05-01T13:35:49.750Z,20.67
2023-05-01T13:37:29.528Z,20.7
2023-05-01T13:39:09.310Z,20.72
2023-05-01T13:40:49.132Z,20.7
2023-05-01T13:42:28.902Z,20.79
2023-05-01T13:44:08.701Z,20.78
2023-05-01T13:45:48.418Z,20.79
2023-05-01T13:47:28.099Z,20.84
2023-05-01T13:49:08.012Z,20.89
2023-05-01T13:50:47.650Z,21
2023-05-01T13:52:27.463Z,21.12
2023-05-01T13:54:07.230Z,21.18
2023-05-01T13:55:46.946Z,21.3
2023-05-01T13:57:26.678Z,21.37
2023-05-01T13:59:06.565Z,21.34
2023-05-01T14:00:46.322Z,21.36
2023-05-01T14:02:25.972Z,21.39
2023-05-01T14:04:05.742Z,21.37
2023-05-01T14:05:45.511Z,21.33
2023-05-01T14:07:25.341Z,21.32
2023-05-01T14:09:05.028Z,21.34
2023-05-01T14:10:44.812Z,21.3
2023-05-01T14:12:24.553Z,21.37
2023-05-01T14:14:04.345Z,21.45
2023-05-01T14:15:44.195Z,21.48
2023-05-01T14:17:23.853Z,21.56
2023-05-01T14:19:03.748Z,21.66
2023-05-01T14:20:43.379Z,21.75
2023-05-01T14:22:23.137Z,21.8
2023-05-01T14:24:03.036Z,21.85
2023-05-01T14:25:42.693Z,21.81
2023-05-01T14:27:22.525Z,21.8
2023-05-01T14:29:02.192Z,21.86
2023-05-01T14:30:41.966Z,21.94
2023-05-01T14:32:21.748Z,21.96
2023-05-01T14:34:01.491Z,21.95
2023-05-01T14:37:21.050Z,21.81
2023-05-01T14:39:00.993Z,21.83
2023-05-01T14:40:40.564Z,21.86
2023-05-01T14:44:00.099Z,21.95
2023-05-01T14:45:39.891Z,21.97
2023-05-01T14:47:19.717Z,22
2023-05-01T14:48:59.417Z,22.01
2023-05-01T14:50:39.130Z,22.02
2023-05-01T14:52:18.899Z,22.01
2023-05-01T14:53:58.700Z,21.96
2023-05-01T14:55:38.538Z,21.96
2023-05-01T14:57:18.199Z,21.89
2023-05-01T14:58:58.056Z,21.8
2023-05-01T15:00:37.720Z,21.75
2023-05-01T15:02:17.488Z,21.68
2023-05-01T15:03:57.254Z,21.65
2023-05-01T15:07:16.774Z,21.53
2023-05-01T15:08:56.565Z,21.48
2023-05-01T15:10:36.302Z,21.44
2023-05-01T15:12:16.092Z,21.43
2023-05-01T15:13:55.870Z,21.43
2023-05-01T15:15:35.732Z,21.42
2023-05-01T15:17:15.451Z,21.37
2023-05-01T15:18:55.236Z,21.33
2023-05-01T15:20:34.926Z,21.31
2023-05-01T15:22:14.766Z,21.26
2023-05-01T15:23:54.430Z,21.19
2023-05-01T15:25:34.279Z,21.13
2023-05-01T15:27:13.956Z,21.08
2023-05-01T15:28:53.773Z,21.05
2023-05-01T15:30:33.496Z,21
2023-05-01T15:32:13.287Z,20.94
2023-05-01T15:33:53.015Z,20.91
2023-05-01T15:35:32.805Z,20.88
2023-05-01T15:37:12.552Z,20.85
2023-05-01T15:38:52.312Z,20.74
2023-05-01T15:40:32.075Z,20.75
2023-05-01T15:42:11.950Z,20.7
2023-05-01T15:43:51.632Z,20.66
2023-05-01T15:47:11.145Z,20.55
2023-05-01T15:48:50.971Z,20.48
2023-05-01T15:50:30.682Z,20.48
2023-05-01T15:52:10.422Z,20.45
2023-05-01T15:53:50.184Z,20.4
2023-05-01T15:57:09.734Z,20.37
2023-05-01T15:58:49.515Z,20.36
2023-05-01T16:00:29.332Z,20.33
2023-05-01T16:02:09.012Z,20.32
2023-05-01T16:03:48.771Z,20.23
2023-05-01T16:05:28.529Z,20.27
2023-05-01T16:07:08.280Z,20.23
2023-05-01T16:08:48.050Z,20.2
2023-05-01T16:10:27.877Z,20.18
2023-05-01T16:12:07.581Z,20.15
2023-05-01T16:13:47.352Z,20.12
2023-05-01T16:15:27.117Z,20.08
2023-05-01T16:17:06.885Z,20.07
2023-05-01T16:18:46.660Z,20.03
2023-05-01T16:20:26.479Z,20
2023-05-01T16:22:06.175Z,20
2023-05-01T16:23:45.932Z,19.98
2023-05-01T16:25:25.692Z,19.9
2023-05-01T16:27:05.512Z,19.93
2023-05-01T16:28:45.274Z,19.89
2023-05-01T16:30:24.999Z,19.87
2023-05-01T16:32:04.782Z,19.85
2023-05-01T16:33:44.506Z,19.84
2023-05-01T16:35:24.315Z,19.79
2023-05-01T16:37:04.127Z,19.76
2023-05-01T16:38:43.821Z,19.7
2023-05-01T16:40:23.700Z,19.68
2023-05-01T16:42:03.341Z,19.62
2023-05-01T16:43:43.149Z,19.61
2023-05-01T16:45:22.911Z,19.56
2023-05-01T16:47:02.677Z,19.52
2023-05-01T16:48:42.389Z,19.49
2023-05-01T16:50:22.163Z,19.45
2023-05-01T16:52:01.918Z,19.37
2023-05-01T16:53:41.675Z,19.36
2023-05-01T16:55:21.482Z,19.29
2023-05-01T16:57:01.227Z,19.27
2023-05-01T16:58:40.965Z,19.21
2023-05-01T17:00:20.830Z,19.19
2023-05-01T17:02:00.536Z,19.18
2023-05-01T17:03:40.410Z,19.15
2023-05-01T17:05:20.056Z,19.12
2023-05-01T17:06:59.804Z,19.06
2023-05-01T17:08:39.720Z,19.06
2023-05-01T17:10:19.466Z,19.02
2023-05-01T17:11:59.191Z,18.95
2023-05-01T17:13:38.854Z,18.95
2023-05-01T17:15:18.624Z,18.9
2023-05-01T17:16:58.385Z,18.86
2023-05-01T17:18:38.158Z,18.81
2023-05-01T17:20:17.979Z,18.76
2023-05-01T17:21:57.691Z,18.7
2023-05-01T17:23:37.490Z,18.67
2023-05-01T17:25:17.219Z,18.62
2023-05-01T17:26:57.087Z,18.54
2023-05-01T17:28:36.738Z,18.51
2023-05-01T17:31:56.391Z,18.44
2023-05-01T17:33:36.001Z,18.4
2023-05-01T17:35:15.782Z,18.35
2023-05-01T17:36:55.564Z,18.32
2023-05-01T17:38:35.310Z,18.25
2023-05-01T17:40:15.138Z,18.2
2023-05-01T17:41:54.887Z,18.15
2023-05-01T17:43:34.601Z,18.12
2023-05-01T17:45:14.374Z,18.1
2023-05-01T17:48:33.952Z,18.01
2023-05-01T17:50:13.793Z,17.98
2023-05-01T17:51:53.599Z,17.95
2023-05-01T17:53:33.186Z,17.89
2023-05-01T17:56:52.726Z,17.83
2023-05-01T17:58:32.486Z,17.78
2023-05-01T18:00:12.246Z,17.73
2023-05-01T18:01:52.079Z,17.7
2023-05-01T18:03:31.825Z,17.64
2023-05-01T18:05:11.636Z,17.6
2023-05-01T18:06:51.304Z,17.57
2023-05-01T18:08:31.152Z,17.53
2023-05-01T18:10:11.014Z,17.5
2023-05-01T18:11:50.588Z,17.45
2023-05-01T18:13:30.428Z,17.41
2023-05-01T18:15:10.138Z,17.37
2023-05-01T18:16:50.000Z,17.29
2023-05-01T18:18:29.677Z,17.25
2023-05-01T18:20:09.415Z,17.2
2023-05-01T18:21:49.236Z,17.15
2023-05-01T18:23:29.063Z,17.08
2023-05-01T18:25:08.789Z,17.03
2023-05-01T18:26:48.573Z,16.98
2023-05-01T18:28:28.320Z,16.92
2023-05-01T18:30:08.214Z,16.87
2023-05-01T18:31:47.818Z,16.81
2023-05-01T18:33:27.593Z,16.76
2023-05-01T18:35:07.383Z,16.71
2023-05-01T18:36:47.205Z,16.65
2023-05-01T18:38:26.865Z,16.61
2023-05-01T18:40:06.686Z,16.56
2023-05-01T18:41:46.349Z,16.52
2023-05-01T18:43:26.197Z,16.46
2023-05-01T18:45:05.882Z,16.43
2023-05-01T18:46:45.633Z,16.39
2023-05-01T18:48:25.399Z,16.35
2023-05-01T18:51:44.920Z,16.27
2023-05-01T18:53:24.697Z,16.23
2023-05-01T18:55:04.473Z,16.19
2023-05-01T18:56:44.217Z,16.18
2023-05-01T18:58:24.084Z,16.12
2023-05-01T19:00:03.874Z,16.09
2023-05-01T19:03:23.349Z,16.01
2023-05-01T19:06:42.808Z,15.95
2023-05-01T19:08:22.561Z,15.89
2023-05-01T19:11:42.093Z,15.8
2023-05-01T19:13:21.892Z,15.77
2023-05-01T19:16:41.390Z,15.68
2023-05-01T19:18:21.150Z,15.65
2023-05-01T19:20:01.154Z,15.59
2023-05-01T19:21:40.754Z,15.55
2023-05-01T19:23:20.557Z,15.51
2023-05-01T19:25:00.265Z,15.46
2023-05-01T19:26:40.016Z,15.43
2023-05-01T19:28:19.835Z,15.36
2023-05-01T19:29:59.673Z,15.34
2023-05-01T19:31:39.258Z,15.31
2023-05-01T19:33:19.033Z,15.28
2023-05-01T19:34:58.838Z,15.24
2023-05-01T19:36:38.571Z,15.21
2023-05-01T19:38:18.322Z,15.18
2023-05-01T19:39:58.121Z,15.15
2023-05-01T19:41:38.013Z,15.13
2023-05-01T19:44:57.379Z,15.07
2023-05-01T19:46:37.132Z,15.06
2023-05-01T19:48:16.922Z,15.03
2023-05-01T19:49:56.863Z,15.01
2023-05-01T19:51:36.467Z,14.98
2023-05-01T19:53:16.204Z,14.97
2023-05-01T19:54:55.964Z,14.95
2023-05-01T19:56:35.762Z,14.92
2023-05-01T19:58:15.478Z,14.9
2023-05-01T19:59:55.250Z,14.87
2023-05-01T20:01:35.146Z,14.85
2023-05-01T20:03:14.793Z,14.83
2023-05-01T20:04:54.571Z,14.8
2023-05-01T20:06:34.301Z,14.78
2023-05-01T20:08:14.112Z,14.76
2023-05-01T20:09:53.941Z,14.72
2023-05-01T20:13:13.389Z,14.67
2023-05-01T20:14:53.193Z,14.65
2023-05-01T20:16:32.927Z,14.63
2023-05-01T20:18:12.650Z,14.58
2023-05-01T20:19:52.444Z,14.57
2023-05-01T20:23:11.964Z,14.51
2023-05-01T20:24:51.819Z,14.47
2023-05-01T20:26:31.474Z,14.45
2023-05-01T20:28:11.306Z,14.43
2023-05-01T20:29:51.215Z,14.4
2023-05-01T20:34:50.334Z,14.33
2023-05-01T20:36:30.133Z,14.31
2023-05-01T20:38:09.821Z,14.29
2023-05-01T20:39:49.723Z,14.28
2023-05-01T20:41:29.406Z,14.24
2023-05-01T20:43:09.140Z,14.23
2023-05-01T20:44:49.048Z,14.22
2023-05-01T20:46:28.666Z,14.2
2023-05-01T20:48:08.401Z,14.17
2023-05-01T20:51:27.959Z,14.16
2023-05-01T20:53:07.707Z,14.14
2023-05-01T20:54:47.571Z,14.12
2023-05-01T20:56:27.229Z,14.11
2023-05-01T20:58:07.107Z,14.09
2023-05-01T20:59:46.901Z,14.08
2023-05-01T21:03:06.315Z,14.05
2023-05-01T21:04:46.067Z,14.04
2023-05-01T21:06:25.882Z,14.02
2023-05-01T21:08:05.564Z,14
2023-05-01T21:09:45.424Z,14
2023-05-01T21:11:25.185Z,13.98
2023-05-01T21:13:04.869Z,13.97
2023-05-01T21:14:44.660Z,13.94
2023-05-01T21:16:24.394Z,13.94
2023-05-01T21:18:04.196Z,13.92
2023-05-01T21:19:44.018Z,13.89
2023-05-01T21:21:23.754Z,13.87
2023-05-01T21:24:43.235Z,13.83
2023-05-01T21:26:22.972Z,13.81
2023-05-01T21:28:02.737Z,13.79
2023-05-01T21:29:42.514Z,13.75
2023-05-01T21:31:22.372Z,13.74
2023-05-01T21:33:02.035Z,13.74
2023-05-01T21:34:41.884Z,13.7
2023-05-01T21:36:21.551Z,13.69
2023-05-01T21:38:01.337Z,13.66
2023-05-01T21:39:41.078Z,13.66
2023-05-01T21:41:20.936Z,13.63
2023-05-01T21:43:00.654Z,13.61
2023-05-01T21:44:40.406Z,13.58
2023-05-01T21:46:20.150Z,13.56
2023-05-01T21:47:59.917Z,13.54
2023-05-01T21:49:39.709Z,13.52
2023-05-01T21:51:19.520Z,13.51
2023-05-01T21:52:59.195Z,13.49
2023-05-01T21:54:39.034Z,13.49
2023-05-01T21:57:58.486Z,13.46
2023-05-01T21:59:38.281Z,13.43
2023-05-01T22:02:57.831Z,13.38
2023-05-01T22:04:37.614Z,13.39
2023-05-01T22:07:57.062Z,13.33
2023-05-01T22:09:36.861Z,13.32
2023-05-01T22:11:16.606Z,13.3
2023-05-01T22:12:56.489Z,13.28
2023-05-01T22:14:36.139Z,13.26
2023-05-01T22:16:15.893Z,13.26
2023-05-01T22:17:55.762Z,13.23
2023-05-01T22:19:35.428Z,13.22
2023-05-01T22:21:15.221Z,13.2
2023-05-01T22:22:55.040Z,13.18
2023-05-01T22:24:34.727Z,13.15
2023-05-01T22:26:14.572Z,13.13
2023-05-01T22:27:54.386Z,13.14
2023-05-01T22:29:34.103Z,13.09
2023-05-01T22:31:13.838Z,13.09
2023-05-01T22:32:53.527Z,13.07
2023-05-01T22:34:33.290Z,13.06
2023-05-01T22:36:13.062Z,13.05
2023-05-01T22:37:52.831Z,13.03
2023-05-01T22:39:32.593Z,13.02
2023-05-01T22:41:12.475Z,13.01
2023-05-01T22:42:52.127Z,12.97
2023-05-01T22:46:11.687Z,12.94
2023-05-01T22:47:51.445Z,12.92
2023-05-01T22:49:31.169Z,12.91
2023-05-01T22:51:11.039Z,12.89
2023-05-01T22:52:50.864Z,12.86
2023-05-01T22:54:30.463Z,12.84
2023-05-01T22:56:10.231Z,12.81
2023-05-01T22:57:50.011Z,12.81
2023-05-01T22:59:29.813Z,12.79
2023-05-01T23:01:09.657Z,12.79
2023-05-01T23:04:29.038Z,12.74
2023-05-01T23:06:08.818Z,12.72
2023-05-01T23:07:48.646Z,12.71
2023-05-01T23:09:28.348Z,12.69
2023-05-01T23:11:08.106Z,12.67